CheckWX is a tool to help pilots better visualize weather data.  It is not intended as a substitute for an official pre-flight weather briefing.

21:18:00 UTC

KINS METAR
Creech AFB Airport
Indian Springs, Nevada, USA
Current

20 mins ago

KINS 232058Z AUTO 00000KT 10SM FEW180 FEW200 08/M13 A3022 RMK AO2 SLP235 T00841133 57013 VISNO RWY08 $
Observed
Feb-23 @ 20:58 UTC
Visibility
10 SM
Flight Rules
VFR
Cloud Levels
  • Few at 18,000' AGL
  • Few at 20,000' AGL
Temperature
C / 46°F
Dewpoint
-13°C / 9°F
Humidity
21%
Altimeter
30.22" Hg
Pressure
1023.5 hPa
Previous

1 hour ago

KINS 231958Z AUTO 12004KT 10SM CLR 07/M13 A3025 RMK AO2 SLP245 T00671130 VISNO RWY08 $
Observed
Feb-23 @ 19:58 UTC
Wind
  • 120° at 4 KTS
Visibility
10 SM
Flight Rules
VFR
Cloud Levels
  • Clear skies
Temperature
C / 45°F
Dewpoint
-13°C / 9°F
Humidity
23%
Altimeter
30.25" Hg
Pressure
1024.5 hPa
Previous

2 hours ago

KINS 231858Z AUTO 09003KT 10SM CLR 05/M12 A3025 RMK AO2 SLP248 T00501116 VISNO RWY08 $
Observed
Feb-23 @ 18:58 UTC
Wind
  • 090° at 3 KTS
Visibility
10 SM
Flight Rules
VFR
Cloud Levels
  • Clear skies
Temperature
C / 41°F
Dewpoint
-12°C / 10°F
Humidity
28%
Altimeter
30.25" Hg
Pressure
1024.8 hPa